sensor_id;sensor_type;location;lat;lon;timestamp;P1;durP1;ratioP1;P2;durP2;ratioP2
74369;SDS011;62805;44.644;10.942;2023-05-07T00:01:14;18.23;;;11.13;;
74369;SDS011;62805;44.644;10.942;2023-05-07T00:03:39;17.83;;;10.90;;
74369;SDS011;62805;44.644;10.942;2023-05-07T00:06:05;16.27;;;11.53;;
74369;SDS011;62805;44.644;10.942;2023-05-07T00:08:30;18.45;;;11.80;;
74369;SDS011;62805;44.644;10.942;2023-05-07T00:10:56;16.13;;;11.32;;
74369;SDS011;62805;44.644;10.942;2023-05-07T00:13:21;17.25;;;11.10;;
74369;SDS011;62805;44.644;10.942;2023-05-07T00:15:46;16.00;;;10.80;;
74369;SDS011;62805;44.644;10.942;2023-05-07T00:18:12;14.87;;;10.40;;
74369;SDS011;62805;44.644;10.942;2023-05-07T00:20:37;17.52;;;11.40;;
74369;SDS011;62805;44.644;10.942;2023-05-07T00:23:02;15.07;;;11.15;;
74369;SDS011;62805;44.644;10.942;2023-05-07T00:25:28;16.27;;;10.77;;
74369;SDS011;62805;44.644;10.942;2023-05-07T00:27:53;19.67;;;11.93;;
74369;SDS011;62805;44.644;10.942;2023-05-07T00:30:18;16.73;;;11.00;;
74369;SDS011;62805;44.644;10.942;2023-05-07T00:32:44;16.52;;;11.77;;
74369;SDS011;62805;44.644;10.942;2023-05-07T00:35:10;16.88;;;11.82;;
74369;SDS011;62805;44.644;10.942;2023-05-07T00:37:36;17.17;;;11.88;;
74369;SDS011;62805;44.644;10.942;2023-05-07T00:40:01;19.15;;;12.50;;
74369;SDS011;62805;44.644;10.942;2023-05-07T00:42:29;16.77;;;11.70;;
74369;SDS011;62805;44.644;10.942;2023-05-07T00:44:57;18.60;;;12.48;;
74369;SDS011;62805;44.644;10.942;2023-05-07T00:47:22;17.35;;;12.60;;
74369;SDS011;62805;44.644;10.942;2023-05-07T00:49:48;20.23;;;12.90;;
74369;SDS011;62805;44.644;10.942;2023-05-07T00:52:15;21.38;;;13.52;;
74369;SDS011;62805;44.644;10.942;2023-05-07T00:54:42;18.35;;;12.70;;
74369;SDS011;62805;44.644;10.942;2023-05-07T00:57:09;24.55;;;14.48;;
74369;SDS011;62805;44.644;10.942;2023-05-07T00:59:36;23.92;;;14.02;;
74369;SDS011;62805;44.644;10.942;2023-05-07T01:02:01;19.23;;;13.00;;
74369;SDS011;62805;44.644;10.942;2023-05-07T01:04:27;18.88;;;13.02;;
74369;SDS011;62805;44.644;10.942;2023-05-07T01:06:52;19.27;;;13.05;;
74369;SDS011;62805;44.644;10.942;2023-05-07T01:09:21;21.77;;;12.95;;
74369;SDS011;62805;44.644;10.942;2023-05-07T01:11:49;18.67;;;11.93;;
74369;SDS011;62805;44.644;10.942;2023-05-07T01:14:15;19.17;;;12.18;;
74369;SDS011;62805;44.644;10.942;2023-05-07T01:16:41;19.02;;;11.77;;
74369;SDS011;62805;44.644;10.942;2023-05-07T01:19:07;18.30;;;12.50;;
74369;SDS011;62805;44.644;10.942;2023-05-07T01:21:35;17.33;;;11.52;;
74369;SDS011;62805;44.644;10.942;2023-05-07T01:24:02;17.30;;;11.63;;
74369;SDS011;62805;44.644;10.942;2023-05-07T01:26:28;17.98;;;12.18;;
74369;SDS011;62805;44.644;10.942;2023-05-07T01:28:54;19.35;;;12.32;;
74369;SDS011;62805;44.644;10.942;2023-05-07T01:31:19;18.57;;;11.20;;
74369;SDS011;62805;44.644;10.942;2023-05-07T01:33:45;17.15;;;11.40;;
74369;SDS011;62805;44.644;10.942;2023-05-07T01:36:14;16.52;;;10.50;;
74369;SDS011;62805;44.644;10.942;2023-05-07T01:38:42;18.70;;;11.10;;
74369;SDS011;62805;44.644;10.942;2023-05-07T01:41:08;18.67;;;11.45;;
74369;SDS011;62805;44.644;10.942;2023-05-07T01:43:33;17.08;;;12.00;;
74369;SDS011;62805;44.644;10.942;2023-05-07T01:45:59;21.80;;;12.43;;
74369;SDS011;62805;44.644;10.942;2023-05-07T01:48:26;18.70;;;12.10;;
74369;SDS011;62805;44.644;10.942;2023-05-07T01:50:52;18.25;;;12.82;;
74369;SDS011;62805;44.644;10.942;2023-05-07T01:53:17;19.67;;;12.40;;
74369;SDS011;62805;44.644;10.942;2023-05-07T01:55:43;19.67;;;13.55;;
74369;SDS011;62805;44.644;10.942;2023-05-07T01:58:08;22.45;;;12.27;;
74369;SDS011;62805;44.644;10.942;2023-05-07T02:00:33;20.67;;;12.97;;
74369;SDS011;62805;44.644;10.942;2023-05-07T02:02:59;16.97;;;12.00;;
74369;SDS011;62805;44.644;10.942;2023-05-07T02:05:24;19.58;;;12.32;;
74369;SDS011;62805;44.644;10.942;2023-05-07T02:07:49;18.92;;;12.73;;
74369;SDS011;62805;44.644;10.942;2023-05-07T02:10:15;20.30;;;13.37;;
74369;SDS011;62805;44.644;10.942;2023-05-07T02:12:40;22.63;;;13.47;;
74369;SDS011;62805;44.644;10.942;2023-05-07T02:15:06;22.73;;;12.57;;
74369;SDS011;62805;44.644;10.942;2023-05-07T02:17:31;21.08;;;13.98;;
74369;SDS011;62805;44.644;10.942;2023-05-07T02:19:58;21.80;;;13.57;;
74369;SDS011;62805;44.644;10.942;2023-05-07T02:22:23;23.33;;;13.55;;
74369;SDS011;62805;44.644;10.942;2023-05-07T02:24:48;21.88;;;14.07;;
74369;SDS011;62805;44.644;10.942;2023-05-07T02:27:14;23.42;;;14.27;;
74369;SDS011;62805;44.644;10.942;2023-05-07T02:29:39;21.25;;;13.65;;
74369;SDS011;62805;44.644;10.942;2023-05-07T02:32:05;22.77;;;13.38;;
74369;SDS011;62805;44.644;10.942;2023-05-07T02:34:30;23.15;;;13.75;;
74369;SDS011;62805;44.644;10.942;2023-05-07T02:36:56;22.43;;;13.97;;
74369;SDS011;62805;44.644;10.942;2023-05-07T02:39:21;23.15;;;14.95;;
74369;SDS011;62805;44.644;10.942;2023-05-07T02:41:47;25.00;;;14.30;;
74369;SDS011;62805;44.644;10.942;2023-05-07T02:44:12;24.48;;;14.63;;
74369;SDS011;62805;44.644;10.942;2023-05-07T02:46:37;24.23;;;14.50;;
74369;SDS011;62805;44.644;10.942;2023-05-07T02:49:03;25.57;;;16.13;;
74369;SDS011;62805;44.644;10.942;2023-05-07T02:51:29;26.10;;;14.93;;
74369;SDS011;62805;44.644;10.942;2023-05-07T02:53:55;26.58;;;15.38;;
74369;SDS011;62805;44.644;10.942;2023-05-07T02:56:21;23.40;;;15.13;;
74369;SDS011;62805;44.644;10.942;2023-05-07T02:58:46;21.80;;;14.23;;
74369;SDS011;62805;44.644;10.942;2023-05-07T03:01:11;27.60;;;15.70;;
74369;SDS011;62805;44.644;10.942;2023-05-07T03:03:38;22.65;;;15.18;;
74369;SDS011;62805;44.644;10.942;2023-05-07T03:06:04;26.55;;;15.50;;
74369;SDS011;62805;44.644;10.942;2023-05-07T03:08:30;24.45;;;15.18;;
74369;SDS011;62805;44.644;10.942;2023-05-07T03:10:55;27.17;;;15.95;;
74369;SDS011;62805;44.644;10.942;2023-05-07T03:13:21;23.88;;;14.40;;
74369;SDS011;62805;44.644;10.942;2023-05-07T03:15:46;25.48;;;15.52;;
74369;SDS011;62805;44.644;10.942;2023-05-07T03:18:12;21.35;;;14.93;;
74369;SDS011;62805;44.644;10.942;2023-05-07T03:20:37;22.60;;;14.77;;
74369;SDS011;62805;44.644;10.942;2023-05-07T03:23:02;23.35;;;14.80;;
74369;SDS011;62805;44.644;10.942;2023-05-07T03:25:28;21.48;;;14.48;;
74369;SDS011;62805;44.644;10.942;2023-05-07T03:27:55;23.75;;;14.23;;
74369;SDS011;62805;44.644;10.942;2023-05-07T03:30:21;30.00;;;15.23;;
74369;SDS011;62805;44.644;10.942;2023-05-07T03:32:46;24.63;;;14.77;;
74369;SDS011;62805;44.644;10.942;2023-05-07T03:35:11;24.33;;;15.25;;
74369;SDS011;62805;44.644;10.942;2023-05-07T03:37:37;28.55;;;15.55;;
74369;SDS011;62805;44.644;10.942;2023-05-07T03:40:03;25.40;;;15.25;;
74369;SDS011;62805;44.644;10.942;2023-05-07T03:42:29;26.15;;;15.20;;
74369;SDS011;62805;44.644;10.942;2023-05-07T03:44:54;26.45;;;15.98;;
74369;SDS011;62805;44.644;10.942;2023-05-07T03:47:20;28.30;;;17.95;;
74369;SDS011;62805;44.644;10.942;2023-05-07T03:49:46;27.13;;;15.67;;
74369;SDS011;62805;44.644;10.942;2023-05-07T03:52:11;25.48;;;16.38;;
74369;SDS011;62805;44.644;10.942;2023-05-07T03:54:36;26.20;;;16.40;;
74369;SDS011;62805;44.644;10.942;2023-05-07T03:57:02;27.50;;;16.40;;
74369;SDS011;62805;44.644;10.942;2023-05-07T03:59:27;26.48;;;17.15;;
74369;SDS011;62805;44.644;10.942;2023-05-07T04:01:52;26.58;;;17.58;;
74369;SDS011;62805;44.644;10.942;2023-05-07T04:04:18;27.98;;;17.10;;
74369;SDS011;62805;44.644;10.942;2023-05-07T04:06:43;29.23;;;17.00;;
74369;SDS011;62805;44.644;10.942;2023-05-07T04:09:09;28.90;;;17.00;;
74369;SDS011;62805;44.644;10.942;2023-05-07T04:11:35;26.27;;;17.13;;
74369;SDS011;62805;44.644;10.942;2023-05-07T04:14:00;33.13;;;18.35;;
74369;SDS011;62805;44.644;10.942;2023-05-07T04:16:26;28.52;;;17.25;;
74369;SDS011;62805;44.644;10.942;2023-05-07T04:18:51;30.57;;;18.10;;
74369;SDS011;62805;44.644;10.942;2023-05-07T04:21:20;30.35;;;18.45;;
74369;SDS011;62805;44.644;10.942;2023-05-07T04:23:49;33.50;;;19.83;;
74369;SDS011;62805;44.644;10.942;2023-05-07T04:26:14;29.70;;;19.65;;
74369;SDS011;62805;44.644;10.942;2023-05-07T04:28:40;31.48;;;18.92;;
74369;SDS011;62805;44.644;10.942;2023-05-07T04:31:06;32.35;;;19.05;;
74369;SDS011;62805;44.644;10.942;2023-05-07T04:33:32;31.13;;;19.73;;
74369;SDS011;62805;44.644;10.942;2023-05-07T04:35:58;31.83;;;19.05;;
74369;SDS011;62805;44.644;10.942;2023-05-07T04:38:28;30.95;;;19.70;;
74369;SDS011;62805;44.644;10.942;2023-05-07T04:40:54;35.15;;;20.33;;
74369;SDS011;62805;44.644;10.942;2023-05-07T04:43:20;30.92;;;19.98;;
74369;SDS011;62805;44.644;10.942;2023-05-07T04:45:46;35.45;;;22.27;;
74369;SDS011;62805;44.644;10.942;2023-05-07T04:48:11;34.28;;;22.17;;
74369;SDS011;62805;44.644;10.942;2023-05-07T04:50:37;35.13;;;20.63;;
74369;SDS011;62805;44.644;10.942;2023-05-07T04:53:02;36.40;;;22.65;;
74369;SDS011;62805;44.644;10.942;2023-05-07T04:55:28;36.10;;;22.58;;
74369;SDS011;62805;44.644;10.942;2023-05-07T04:57:53;32.00;;;21.50;;
74369;SDS011;62805;44.644;10.942;2023-05-07T05:00:18;35.33;;;21.02;;
74369;SDS011;62805;44.644;10.942;2023-05-07T05:02:44;31.63;;;20.85;;
74369;SDS011;62805;44.644;10.942;2023-05-07T05:05:10;33.85;;;21.52;;
74369;SDS011;62805;44.644;10.942;2023-05-07T05:07:36;34.50;;;22.40;;
74369;SDS011;62805;44.644;10.942;2023-05-07T05:10:01;35.40;;;21.63;;
74369;SDS011;62805;44.644;10.942;2023-05-07T05:12:28;32.97;;;21.20;;
74369;SDS011;62805;44.644;10.942;2023-05-07T05:14:54;36.38;;;20.88;;
74369;SDS011;62805;44.644;10.942;2023-05-07T05:17:19;39.30;;;22.83;;
74369;SDS011;62805;44.644;10.942;2023-05-07T05:19:45;34.05;;;22.33;;
74369;SDS011;62805;44.644;10.942;2023-05-07T05:22:10;39.47;;;22.50;;
74369;SDS011;62805;44.644;10.942;2023-05-07T05:24:35;35.63;;;21.80;;
74369;SDS011;62805;44.644;10.942;2023-05-07T05:27:01;34.87;;;21.90;;
74369;SDS011;62805;44.644;10.942;2023-05-07T05:29:27;36.15;;;22.85;;
74369;SDS011;62805;44.644;10.942;2023-05-07T05:31:52;37.43;;;22.23;;
74369;SDS011;62805;44.644;10.942;2023-05-07T05:34:17;32.83;;;22.02;;
74369;SDS011;62805;44.644;10.942;2023-05-07T05:36:44;32.97;;;21.70;;
74369;SDS011;62805;44.644;10.942;2023-05-07T05:39:10;32.83;;;21.45;;
74369;SDS011;62805;44.644;10.942;2023-05-07T05:41:35;33.28;;;20.63;;
74369;SDS011;62805;44.644;10.942;2023-05-07T05:44:01;31.83;;;20.90;;
74369;SDS011;62805;44.644;10.942;2023-05-07T05:46:26;28.87;;;19.93;;
74369;SDS011;62805;44.644;10.942;2023-05-07T05:48:51;31.38;;;20.40;;
74369;SDS011;62805;44.644;10.942;2023-05-07T05:51:17;30.65;;;21.08;;
74369;SDS011;62805;44.644;10.942;2023-05-07T05:53:42;26.95;;;18.02;;
74369;SDS011;62805;44.644;10.942;2023-05-07T05:56:07;25.00;;;17.43;;
74369;SDS011;62805;44.644;10.942;2023-05-07T05:58:33;25.45;;;17.33;;
74369;SDS011;62805;44.644;10.942;2023-05-07T06:00:59;30.45;;;17.15;;
74369;SDS011;62805;44.644;10.942;2023-05-07T06:03:24;25.55;;;18.00;;
74369;SDS011;62805;44.644;10.942;2023-05-07T06:05:49;29.42;;;16.63;;
74369;SDS011;62805;44.644;10.942;2023-05-07T06:08:15;25.05;;;15.93;;
74369;SDS011;62805;44.644;10.942;2023-05-07T06:10:40;25.98;;;16.55;;
74369;SDS011;62805;44.644;10.942;2023-05-07T06:13:06;23.60;;;15.98;;
74369;SDS011;62805;44.644;10.942;2023-05-07T06:15:31;24.92;;;15.02;;
74369;SDS011;62805;44.644;10.942;2023-05-07T06:17:56;23.17;;;15.67;;
74369;SDS011;62805;44.644;10.942;2023-05-07T06:20:22;19.90;;;13.90;;
74369;SDS011;62805;44.644;10.942;2023-05-07T06:22:48;20.92;;;13.10;;
74369;SDS011;62805;44.644;10.942;2023-05-07T06:25:13;18.63;;;13.10;;
74369;SDS011;62805;44.644;10.942;2023-05-07T06:27:39;20.27;;;12.82;;
74369;SDS011;62805;44.644;10.942;2023-05-07T06:30:05;19.17;;;12.17;;
74369;SDS011;62805;44.644;10.942;2023-05-07T06:32:31;18.38;;;12.77;;
74369;SDS011;62805;44.644;10.942;2023-05-07T06:34:56;18.77;;;12.02;;
74369;SDS011;62805;44.644;10.942;2023-05-07T06:37:21;15.07;;;11.50;;
74369;SDS011;62805;44.644;10.942;2023-05-07T06:39:47;18.42;;;12.38;;
74369;SDS011;62805;44.644;10.942;2023-05-07T06:42:12;21.33;;;11.20;;
74369;SDS011;62805;44.644;10.942;2023-05-07T06:44:37;17.10;;;10.70;;
74369;SDS011;62805;44.644;10.942;2023-05-07T06:47:03;14.87;;;10.60;;
74369;SDS011;62805;44.644;10.942;2023-05-07T06:49:28;13.00;;;10.27;;
74369;SDS011;62805;44.644;10.942;2023-05-07T06:51:53;16.47;;;10.97;;
74369;SDS011;62805;44.644;10.942;2023-05-07T06:54:19;18.88;;;11.73;;
74369;SDS011;62805;44.644;10.942;2023-05-07T06:56:45;16.33;;;11.60;;
74369;SDS011;62805;44.644;10.942;2023-05-07T06:59:10;16.67;;;10.90;;
74369;SDS011;62805;44.644;10.942;2023-05-07T07:01:35;16.40;;;10.77;;
74369;SDS011;62805;44.644;10.942;2023-05-07T07:04:01;15.20;;;10.93;;
74369;SDS011;62805;44.644;10.942;2023-05-07T07:06:26;18.33;;;11.98;;
74369;SDS011;62805;44.644;10.942;2023-05-07T07:08:52;22.40;;;11.73;;
74369;SDS011;62805;44.644;10.942;2023-05-07T07:11:17;19.63;;;12.60;;
74369;SDS011;62805;44.644;10.942;2023-05-07T07:13:42;19.37;;;12.40;;
74369;SDS011;62805;44.644;10.942;2023-05-07T07:16:08;18.33;;;12.23;;
74369;SDS011;62805;44.644;10.942;2023-05-07T07:18:33;19.27;;;12.70;;
74369;SDS011;62805;44.644;10.942;2023-05-07T07:20:58;17.55;;;12.65;;
74369;SDS011;62805;44.644;10.942;2023-05-07T07:23:24;16.83;;;12.02;;
74369;SDS011;62805;44.644;10.942;2023-05-07T07:25:50;19.23;;;12.63;;
74369;SDS011;62805;44.644;10.942;2023-05-07T07:28:15;17.67;;;11.82;;
74369;SDS011;62805;44.644;10.942;2023-05-07T07:33:07;19.17;;;12.77;;
74369;SDS011;62805;44.644;10.942;2023-05-07T07:35:32;19.38;;;12.93;;
74369;SDS011;62805;44.644;10.942;2023-05-07T07:37:58;18.63;;;13.53;;
74369;SDS011;62805;44.644;10.942;2023-05-07T07:40:23;19.70;;;13.82;;
74369;SDS011;62805;44.644;10.942;2023-05-07T07:42:49;20.55;;;14.13;;
74369;SDS011;62805;44.644;10.942;2023-05-07T07:45:15;21.13;;;13.90;;
74369;SDS011;62805;44.644;10.942;2023-05-07T07:47:40;21.52;;;14.48;;
74369;SDS011;62805;44.644;10.942;2023-05-07T07:50:06;20.73;;;13.87;;
74369;SDS011;62805;44.644;10.942;2023-05-07T07:52:32;22.20;;;14.93;;
74369;SDS011;62805;44.644;10.942;2023-05-07T07:54:58;20.65;;;14.63;;
74369;SDS011;62805;44.644;10.942;2023-05-07T07:57:23;21.87;;;14.27;;
74369;SDS011;62805;44.644;10.942;2023-05-07T07:59:49;24.98;;;16.02;;
74369;SDS011;62805;44.644;10.942;2023-05-07T08:02:15;23.23;;;15.65;;
74369;SDS011;62805;44.644;10.942;2023-05-07T08:04:40;23.85;;;15.50;;
74369;SDS011;62805;44.644;10.942;2023-05-07T08:07:06;23.08;;;15.82;;
74369;SDS011;62805;44.644;10.942;2023-05-07T08:09:32;24.10;;;14.30;;
74369;SDS011;62805;44.644;10.942;2023-05-07T08:11:57;23.73;;;15.87;;
74369;SDS011;62805;44.644;10.942;2023-05-07T08:14:23;23.85;;;14.95;;
74369;SDS011;62805;44.644;10.942;2023-05-07T08:16:48;23.00;;;16.10;;
74369;SDS011;62805;44.644;10.942;2023-05-07T08:19:13;24.08;;;16.08;;
74369;SDS011;62805;44.644;10.942;2023-05-07T08:21:39;24.27;;;16.05;;
74369;SDS011;62805;44.644;10.942;2023-05-07T08:24:05;27.40;;;16.17;;
74369;SDS011;62805;44.644;10.942;2023-05-07T08:26:31;22.63;;;16.27;;
74369;SDS011;62805;44.644;10.942;2023-05-07T08:28:56;22.43;;;15.23;;
74369;SDS011;62805;44.644;10.942;2023-05-07T08:31:22;22.48;;;16.85;;
74369;SDS011;62805;44.644;10.942;2023-05-07T08:33:47;19.95;;;15.23;;
74369;SDS011;62805;44.644;10.942;2023-05-07T08:36:12;20.75;;;13.90;;
74369;SDS011;62805;44.644;10.942;2023-05-07T08:38:38;22.13;;;15.83;;
74369;SDS011;62805;44.644;10.942;2023-05-07T08:41:05;21.42;;;14.75;;
74369;SDS011;62805;44.644;10.942;2023-05-07T08:43:32;22.55;;;15.00;;
74369;SDS011;62805;44.644;10.942;2023-05-07T08:46:01;20.85;;;14.45;;
74369;SDS011;62805;44.644;10.942;2023-05-07T08:48:29;22.38;;;14.45;;
74369;SDS011;62805;44.644;10.942;2023-05-07T08:50:57;18.60;;;13.13;;
74369;SDS011;62805;44.644;10.942;2023-05-07T08:53:23;18.98;;;14.18;;
74369;SDS011;62805;44.644;10.942;2023-05-07T08:55:49;23.20;;;14.73;;
74369;SDS011;62805;44.644;10.942;2023-05-07T08:58:15;19.95;;;15.38;;
74369;SDS011;62805;44.644;10.942;2023-05-07T09:00:40;22.35;;;15.82;;
74369;SDS011;62805;44.644;10.942;2023-05-07T09:03:06;21.30;;;14.32;;
74369;SDS011;62805;44.644;10.942;2023-05-07T09:05:32;19.97;;;14.23;;
74369;SDS011;62805;44.644;10.942;2023-05-07T09:08:02;18.53;;;13.73;;
74369;SDS011;62805;44.644;10.942;2023-05-07T09:10:27;19.67;;;13.82;;
74369;SDS011;62805;44.644;10.942;2023-05-07T09:12:54;21.83;;;14.63;;
74369;SDS011;62805;44.644;10.942;2023-05-07T09:15:19;20.63;;;14.48;;
74369;SDS011;62805;44.644;10.942;2023-05-07T09:17:45;20.08;;;14.73;;
74369;SDS011;62805;44.644;10.942;2023-05-07T09:20:10;20.65;;;14.85;;
74369;SDS011;62805;44.644;10.942;2023-05-07T09:22:36;20.33;;;14.00;;
74369;SDS011;62805;44.644;10.942;2023-05-07T09:25:02;18.20;;;13.52;;
74369;SDS011;62805;44.644;10.942;2023-05-07T09:27:28;18.70;;;14.48;;
74369;SDS011;62805;44.644;10.942;2023-05-07T09:29:55;18.10;;;13.30;;
74369;SDS011;62805;44.644;10.942;2023-05-07T09:32:20;18.02;;;13.57;;
74369;SDS011;62805;44.644;10.942;2023-05-07T09:34:46;17.38;;;12.98;;
74369;SDS011;62805;44.644;10.942;2023-05-07T09:37:12;16.38;;;11.90;;
74369;SDS011;62805;44.644;10.942;2023-05-07T09:39:45;14.05;;;10.63;;
74369;SDS011;62805;44.644;10.942;2023-05-07T09:42:12;12.25;;;8.43;;
74369;SDS011;62805;44.644;10.942;2023-05-07T09:44:40;13.10;;;9.45;;
74369;SDS011;62805;44.644;10.942;2023-05-07T09:47:06;13.73;;;8.90;;
74369;SDS011;62805;44.644;10.942;2023-05-07T09:49:33;10.88;;;8.55;;
74369;SDS011;62805;44.644;10.942;2023-05-07T09:52:01;9.05;;;6.93;;
74369;SDS011;62805;44.644;10.942;2023-05-07T09:54:28;8.38;;;6.25;;
74369;SDS011;62805;44.644;10.942;2023-05-07T09:56:54;6.80;;;5.43;;
74369;SDS011;62805;44.644;10.942;2023-05-07T09:59:20;6.80;;;4.95;;
74369;SDS011;62805;44.644;10.942;2023-05-07T10:01:47;9.38;;;6.88;;
74369;SDS011;62805;44.644;10.942;2023-05-07T10:04:14;10.05;;;7.78;;
74369;SDS011;62805;44.644;10.942;2023-05-07T10:06:40;10.00;;;7.80;;
74369;SDS011;62805;44.644;10.942;2023-05-07T10:09:06;10.00;;;7.43;;
74369;SDS011;62805;44.644;10.942;2023-05-07T10:11:32;7.55;;;4.88;;
74369;SDS011;62805;44.644;10.942;2023-05-07T10:13:59;8.23;;;5.10;;
74369;SDS011;62805;44.644;10.942;2023-05-07T10:16:26;7.18;;;5.00;;
74369;SDS011;62805;44.644;10.942;2023-05-07T10:18:52;8.50;;;6.75;;
74369;SDS011;62805;44.644;10.942;2023-05-07T10:21:19;6.30;;;5.07;;
74369;SDS011;62805;44.644;10.942;2023-05-07T10:23:49;7.28;;;5.47;;
74369;SDS011;62805;44.644;10.942;2023-05-07T10:26:17;7.95;;;5.40;;
74369;SDS011;62805;44.644;10.942;2023-05-07T10:28:46;6.85;;;4.72;;
74369;SDS011;62805;44.644;10.942;2023-05-07T10:33:50;6.80;;;5.05;;
74369;SDS011;62805;44.644;10.942;2023-05-07T10:36:18;6.88;;;4.68;;
74369;SDS011;62805;44.644;10.942;2023-05-07T10:38:44;8.10;;;4.68;;
74369;SDS011;62805;44.644;10.942;2023-05-07T10:41:11;7.30;;;4.38;;
74369;SDS011;62805;44.644;10.942;2023-05-07T10:46:16;7.25;;;5.10;;
74369;SDS011;62805;44.644;10.942;2023-05-07T10:51:31;7.53;;;5.00;;
74369;SDS011;62805;44.644;10.942;2023-05-07T10:56:35;6.85;;;3.95;;
74369;SDS011;62805;44.644;10.942;2023-05-07T11:01:52;5.68;;;4.50;;
74369;SDS011;62805;44.644;10.942;2023-05-07T11:04:18;4.78;;;3.83;;
74369;SDS011;62805;44.644;10.942;2023-05-07T11:07:09;5.63;;;3.60;;
74369;SDS011;62805;44.644;10.942;2023-05-07T11:15:08;5.05;;;3.40;;
74369;SDS011;62805;44.644;10.942;2023-05-07T11:20:17;4.75;;;3.42;;
74369;SDS011;62805;44.644;10.942;2023-05-07T11:22:43;4.60;;;2.75;;
74369;SDS011;62805;44.644;10.942;2023-05-07T11:25:08;5.95;;;2.88;;
74369;SDS011;62805;44.644;10.942;2023-05-07T11:27:34;6.28;;;2.53;;
74369;SDS011;62805;44.644;10.942;2023-05-07T11:29:59;3.45;;;2.47;;
74369;SDS011;62805;44.644;10.942;2023-05-07T11:32:28;4.22;;;2.40;;
74369;SDS011;62805;44.644;10.942;2023-05-07T11:34:55;5.13;;;2.10;;
74369;SDS011;62805;44.644;10.942;2023-05-07T11:37:23;3.00;;;1.77;;
74369;SDS011;62805;44.644;10.942;2023-05-07T11:39:49;4.43;;;1.98;;
74369;SDS011;62805;44.644;10.942;2023-05-07T11:44:55;5.45;;;1.77;;
74369;SDS011;62805;44.644;10.942;2023-05-07T11:47:20;3.13;;;1.67;;
74369;SDS011;62805;44.644;10.942;2023-05-07T11:49:47;2.70;;;2.00;;
74369;SDS011;62805;44.644;10.942;2023-05-07T11:52:13;3.38;;;1.58;;
74369;SDS011;62805;44.644;10.942;2023-05-07T11:54:39;2.28;;;1.25;;
74369;SDS011;62805;44.644;10.942;2023-05-07T11:57:04;1.65;;;1.42;;
74369;SDS011;62805;44.644;10.942;2023-05-07T11:59:30;4.88;;;2.28;;
74369;SDS011;62805;44.644;10.942;2023-05-07T12:02:05;2.72;;;1.70;;
74369;SDS011;62805;44.644;10.942;2023-05-07T12:04:31;4.15;;;1.73;;
74369;SDS011;62805;44.644;10.942;2023-05-07T12:06:56;4.13;;;1.92;;
74369;SDS011;62805;44.644;10.942;2023-05-07T12:09:21;2.87;;;2.17;;
74369;SDS011;62805;44.644;10.942;2023-05-07T12:11:47;4.28;;;2.70;;
74369;SDS011;62805;44.644;10.942;2023-05-07T12:14:12;7.75;;;5.32;;
74369;SDS011;62805;44.644;10.942;2023-05-07T12:16:39;2.97;;;2.20;;
74369;SDS011;62805;44.644;10.942;2023-05-07T12:19:05;3.03;;;2.47;;
74369;SDS011;62805;44.644;10.942;2023-05-07T12:21:33;3.95;;;2.50;;
74369;SDS011;62805;44.644;10.942;2023-05-07T12:24:00;4.38;;;2.63;;
74369;SDS011;62805;44.644;10.942;2023-05-07T12:26:26;4.70;;;3.10;;
74369;SDS011;62805;44.644;10.942;2023-05-07T12:28:51;3.90;;;3.00;;
74369;SDS011;62805;44.644;10.942;2023-05-07T12:31:17;4.85;;;2.95;;
74369;SDS011;62805;44.644;10.942;2023-05-07T12:33:42;4.45;;;2.58;;
74369;SDS011;62805;44.644;10.942;2023-05-07T12:36:08;4.28;;;2.55;;
74369;SDS011;62805;44.644;10.942;2023-05-07T12:38:35;3.25;;;2.55;;
74369;SDS011;62805;44.644;10.942;2023-05-07T12:41:01;3.70;;;2.35;;
74369;SDS011;62805;44.644;10.942;2023-05-07T12:43:27;4.10;;;2.13;;
74369;SDS011;62805;44.644;10.942;2023-05-07T12:45:54;3.95;;;2.20;;
74369;SDS011;62805;44.644;10.942;2023-05-07T12:48:24;3.58;;;3.03;;
74369;SDS011;62805;44.644;10.942;2023-05-07T12:50:54;3.10;;;2.40;;
74369;SDS011;62805;44.644;10.942;2023-05-07T12:53:21;3.00;;;2.25;;
74369;SDS011;62805;44.644;10.942;2023-05-07T12:55:48;4.07;;;2.33;;
74369;SDS011;62805;44.644;10.942;2023-05-07T12:58:19;2.75;;;1.80;;
74369;SDS011;62805;44.644;10.942;2023-05-07T13:00:55;3.40;;;2.20;;
74369;SDS011;62805;44.644;10.942;2023-05-07T13:03:24;7.10;;;2.22;;
74369;SDS011;62805;44.644;10.942;2023-05-07T13:05:52;3.40;;;1.95;;
74369;SDS011;62805;44.644;10.942;2023-05-07T13:08:32;2.83;;;1.90;;
74369;SDS011;62805;44.644;10.942;2023-05-07T13:11:00;3.72;;;2.00;;
74369;SDS011;62805;44.644;10.942;2023-05-07T13:13:30;2.17;;;1.73;;
74369;SDS011;62805;44.644;10.942;2023-05-07T13:15:56;3.53;;;1.85;;
74369;SDS011;62805;44.644;10.942;2023-05-07T13:18:21;3.33;;;2.22;;
74369;SDS011;62805;44.644;10.942;2023-05-07T13:20:47;4.18;;;2.08;;
74369;SDS011;62805;44.644;10.942;2023-05-07T13:23:12;4.70;;;2.22;;
74369;SDS011;62805;44.644;10.942;2023-05-07T13:25:37;2.67;;;1.70;;
74369;SDS011;62805;44.644;10.942;2023-05-07T13:28:03;3.85;;;2.47;;
74369;SDS011;62805;44.644;10.942;2023-05-07T13:30:29;6.18;;;2.63;;
74369;SDS011;62805;44.644;10.942;2023-05-07T13:32:55;3.15;;;2.38;;
74369;SDS011;62805;44.644;10.942;2023-05-07T13:35:21;4.78;;;2.53;;
74369;SDS011;62805;44.644;10.942;2023-05-07T13:37:47;4.25;;;3.13;;
74369;SDS011;62805;44.644;10.942;2023-05-07T13:40:14;3.13;;;2.25;;
74369;SDS011;62805;44.644;10.942;2023-05-07T13:42:40;3.67;;;2.25;;
74369;SDS011;62805;44.644;10.942;2023-05-07T13:45:06;3.00;;;2.42;;
74369;SDS011;62805;44.644;10.942;2023-05-07T13:47:32;5.22;;;2.47;;
74369;SDS011;62805;44.644;10.942;2023-05-07T13:49:57;4.75;;;3.03;;
74369;SDS011;62805;44.644;10.942;2023-05-07T13:52:23;5.60;;;2.20;;
74369;SDS011;62805;44.644;10.942;2023-05-07T13:54:48;5.80;;;3.42;;
74369;SDS011;62805;44.644;10.942;2023-05-07T13:57:13;4.55;;;2.30;;
74369;SDS011;62805;44.644;10.942;2023-05-07T13:59:40;3.97;;;2.47;;
74369;SDS011;62805;44.644;10.942;2023-05-07T14:02:06;4.25;;;2.78;;
74369;SDS011;62805;44.644;10.942;2023-05-07T14:04:31;3.50;;;2.25;;
74369;SDS011;62805;44.644;10.942;2023-05-07T14:06:57;3.55;;;2.55;;
74369;SDS011;62805;44.644;10.942;2023-05-07T14:09:22;3.58;;;2.42;;
74369;SDS011;62805;44.644;10.942;2023-05-07T14:11:47;3.03;;;2.23;;
74369;SDS011;62805;44.644;10.942;2023-05-07T14:14:16;3.15;;;2.25;;
74369;SDS011;62805;44.644;10.942;2023-05-07T14:16:44;2.80;;;2.30;;
74369;SDS011;62805;44.644;10.942;2023-05-07T14:19:11;4.70;;;2.53;;
74369;SDS011;62805;44.644;10.942;2023-05-07T14:21:37;2.88;;;2.10;;
74369;SDS011;62805;44.644;10.942;2023-05-07T14:24:03;2.90;;;2.30;;
74369;SDS011;62805;44.644;10.942;2023-05-07T14:26:29;4.05;;;3.42;;
74369;SDS011;62805;44.644;10.942;2023-05-07T14:28:54;2.92;;;2.40;;
74369;SDS011;62805;44.644;10.942;2023-05-07T14:31:22;5.90;;;2.75;;
74369;SDS011;62805;44.644;10.942;2023-05-07T14:33:48;4.45;;;2.45;;
74369;SDS011;62805;44.644;10.942;2023-05-07T14:36:14;3.78;;;2.50;;